Terminal Aerodrome Forecast
Issued by NWS

Home | Current Version | Previous Version | Text Only | Print | Product List | Glossary On
Versions: 1 2 3 4 5 6 7 8 9 10 11 12
232
FTPA31 PHFO 202330
TAFHJR
TAF
PHJR 202330Z 2100/2124 08011G19KT P6SM SCT045
     FM210500 07006KT P6SM FEW050
     FM212000 08010G18KT P6SM SCT045=

USA.gov is the U.S. government's official web portal to all federal, state and local government web resources and services.